createdAt,value
2023-03-06T00:00:50.813Z,12.13
2023-03-06T00:03:20.042Z,12.60
2023-03-06T00:05:48.289Z,11.63
2023-03-06T00:08:16.756Z,12.23
2023-03-06T00:10:45.083Z,13.17
2023-03-06T00:13:17.138Z,13.47
2023-03-06T00:15:45.484Z,11.90
2023-03-06T00:18:15.327Z,12.33
2023-03-06T00:20:45.057Z,12.77
2023-03-06T00:23:13.710Z,13.27
2023-03-06T00:25:44.962Z,13.23
2023-03-06T00:28:15.145Z,13.50
2023-03-06T00:30:43.494Z,13.07
2023-03-06T00:33:12.130Z,13.37
2023-03-06T00:35:42.771Z,13.03
2023-03-06T00:38:13.385Z,13.53
2023-03-06T00:40:41.762Z,13.47
2023-03-06T00:43:09.996Z,13.33
2023-03-06T00:45:38.120Z,13.73
2023-03-06T00:48:06.953Z,14.37
2023-03-06T00:50:36.905Z,14.60
2023-03-06T00:53:08.037Z,14.63
2023-03-06T00:55:36.145Z,13.77
2023-03-06T00:58:04.697Z,15.40
2023-03-06T01:00:33.241Z,16.27
2023-03-06T01:03:01.642Z,17.27
2023-03-06T01:05:29.789Z,18.53
2023-03-06T01:07:58.461Z,14.67
2023-03-06T01:10:28.487Z,14.13
2023-03-06T01:12:57.076Z,13.33
2023-03-06T01:15:25.906Z,14.73
2023-03-06T01:17:54.976Z,14.73
2023-03-06T01:20:23.998Z,13.60
2023-03-06T01:22:52.525Z,14.47
2023-03-06T01:25:20.963Z,14.70
2023-03-06T01:27:51.156Z,14.27
2023-03-06T01:30:19.653Z,14.80
2023-03-06T01:32:48.418Z,14.27
2023-03-06T01:35:17.140Z,14.50
2023-03-06T01:37:45.924Z,13.90
2023-03-06T01:40:15.677Z,14.30
2023-03-06T01:42:46.355Z,14.03
2023-03-06T01:45:52.170Z,14.83
2023-03-06T01:48:24.790Z,15.23
2023-03-06T01:50:54.407Z,13.60
2023-03-06T01:53:22.686Z,14.23
2023-03-06T01:55:51.282Z,13.47
2023-03-06T01:58:20.541Z,15.17
2023-03-06T02:00:49.390Z,14.67
2023-03-06T02:03:23.049Z,13.80
2023-03-06T02:05:53.865Z,15.10
2023-03-06T02:08:24.625Z,14.67
2023-03-06T02:11:02.560Z,13.93
2023-03-06T02:13:31.078Z,14.10
2023-03-06T02:16:00.500Z,14.60
2023-03-06T02:18:35.304Z,13.43
2023-03-06T02:21:07.664Z,14.17
2023-03-06T02:23:44.389Z,14.40
2023-03-06T02:26:15.705Z,13.90
2023-03-06T02:28:44.684Z,14.23
2023-03-06T02:31:22.709Z,13.73
2023-03-06T02:34:04.663Z,14.60
2023-03-06T02:36:35.189Z,13.63
2023-03-06T02:39:04.955Z,14.30
2023-03-06T02:41:34.970Z,14.53
2023-03-06T02:44:03.344Z,14.20
2023-03-06T02:46:31.593Z,14.93
2023-03-06T02:49:00.290Z,14.30
2023-03-06T02:51:28.814Z,13.63
2023-03-06T02:53:56.986Z,14.90
2023-03-06T02:56:24.996Z,14.83
2023-03-06T02:58:54.671Z,14.90
2023-03-06T03:01:23.310Z,13.47
2023-03-06T03:03:51.500Z,14.03
2023-03-06T03:06:19.680Z,14.57
2023-03-06T03:08:47.882Z,16.00
2023-03-06T03:11:17.058Z,15.33
2023-03-06T03:13:45.590Z,15.77
2023-03-06T03:16:16.925Z,15.77
2023-03-06T03:18:48.226Z,16.60
2023-03-06T03:21:18.442Z,15.77
2023-03-06T03:23:46.921Z,15.37
2023-03-06T03:26:17.238Z,15.07
2023-03-06T03:28:46.785Z,16.10
2023-03-06T03:31:16.625Z,16.37
2023-03-06T03:33:45.158Z,16.17
2023-03-06T03:36:13.391Z,15.23
2023-03-06T03:38:41.501Z,16.10
2023-03-06T03:41:09.754Z,15.53
2023-03-06T03:43:37.823Z,15.00
2023-03-06T03:46:06.288Z,15.23
2023-03-06T03:48:35.789Z,14.57
2023-03-06T03:51:06.531Z,15.00
2023-03-06T03:53:34.699Z,15.90
2023-03-06T03:56:03.825Z,15.43
2023-03-06T03:58:31.825Z,15.07
2023-03-06T04:01:00.190Z,14.57
2023-03-06T04:03:28.602Z,13.63
2023-03-06T04:05:58.409Z,14.50
2023-03-06T04:08:27.430Z,15.40
2023-03-06T04:10:56.701Z,15.63
2023-03-06T04:13:25.370Z,14.60
2023-03-06T04:15:55.460Z,16.27
2023-03-06T04:18:24.859Z,15.87
2023-03-06T04:20:53.088Z,16.57
2023-03-06T04:23:24.360Z,15.77
2023-03-06T04:25:53.248Z,16.30
2023-03-06T04:28:22.073Z,16.93
2023-03-06T04:30:50.390Z,16.00
2023-03-06T04:33:18.937Z,15.30
2023-03-06T04:35:47.101Z,17.23
2023-03-06T04:38:16.425Z,17.23
2023-03-06T04:40:49.904Z,16.90
2023-03-06T04:43:18.525Z,17.60
2023-03-06T04:45:46.761Z,17.30
2023-03-06T04:48:15.934Z,18.13
2023-03-06T04:50:44.293Z,17.07
2023-03-06T04:53:13.653Z,16.20
2023-03-06T04:55:42.035Z,16.97
2023-03-06T04:58:13.017Z,17.13
2023-03-06T05:00:41.438Z,18.90
2023-03-06T05:03:10.069Z,17.77
2023-03-06T05:05:38.386Z,17.60
2023-03-06T05:08:07.116Z,16.97
2023-03-06T05:10:35.839Z,17.30
2023-03-06T05:13:05.349Z,17.53
2023-03-06T05:15:35.310Z,18.10
2023-03-06T05:18:03.498Z,17.57
2023-03-06T05:20:31.661Z,16.17
2023-03-06T05:22:59.724Z,18.83
2023-03-06T05:25:27.911Z,17.30
2023-03-06T05:27:58.561Z,16.90
2023-03-06T05:30:27.502Z,17.23
2023-03-06T05:32:57.074Z,16.53
2023-03-06T05:35:25.578Z,19.00
2023-03-06T05:37:54.003Z,17.43
2023-03-06T05:40:22.627Z,17.67
2023-03-06T05:42:50.962Z,19.30
2023-03-06T05:45:19.240Z,17.10
2023-03-06T05:47:47.835Z,19.43
2023-03-06T05:50:18.443Z,18.30
2023-03-06T05:52:46.650Z,18.63
2023-03-06T05:55:15.703Z,17.17
2023-03-06T05:57:44.446Z,18.07
2023-03-06T06:00:15.296Z,18.53
2023-03-06T06:02:44.400Z,16.50
2023-03-06T06:05:13.590Z,17.47
2023-03-06T06:07:43.538Z,17.40
2023-03-06T06:10:13.333Z,17.73
2023-03-06T06:12:41.882Z,17.50
2023-03-06T06:15:10.748Z,18.27
2023-03-06T06:17:38.861Z,18.03
2023-03-06T06:20:08.095Z,16.00
2023-03-06T06:22:38.971Z,17.30
2023-03-06T06:25:09.781Z,17.43
2023-03-06T06:27:37.934Z,16.97
2023-03-06T06:30:08.282Z,17.10
2023-03-06T06:32:37.863Z,17.33
2023-03-06T06:35:06.675Z,18.00
2023-03-06T06:37:34.984Z,16.83
2023-03-06T06:40:05.319Z,17.40
2023-03-06T06:42:39.891Z,16.70
2023-03-06T06:45:10.080Z,17.20
2023-03-06T06:47:41.612Z,17.43
2023-03-06T06:50:13.675Z,17.83
2023-03-06T06:52:42.081Z,16.30
2023-03-06T06:55:11.283Z,17.27
2023-03-06T06:57:42.244Z,16.80
2023-03-06T07:00:14.353Z,16.43
2023-03-06T07:02:42.704Z,17.07
2023-03-06T07:05:11.855Z,16.30
2023-03-06T07:07:40.099Z,17.17
2023-03-06T07:10:12.592Z,16.43
2023-03-06T07:12:42.561Z,15.33
2023-03-06T07:15:14.627Z,15.87
2023-03-06T07:17:42.926Z,18.07
2023-03-06T07:20:12.779Z,15.97
2023-03-06T07:22:50.789Z,14.77
2023-03-06T07:25:20.752Z,14.77
2023-03-06T07:27:54.176Z,15.47
2023-03-06T07:30:23.633Z,15.83
2023-03-06T07:32:54.372Z,14.70
2023-03-06T07:35:23.576Z,15.40
2023-03-06T07:37:52.708Z,14.97
2023-03-06T07:40:22.374Z,15.97
2023-03-06T07:43:06.091Z,14.80
2023-03-06T07:45:41.397Z,14.07
2023-03-06T07:48:09.392Z,15.23
2023-03-06T07:50:39.303Z,14.67
2023-03-06T07:53:07.304Z,14.90
2023-03-06T07:55:35.357Z,15.23
2023-03-06T07:58:04.999Z,12.83
2023-03-06T08:00:33.588Z,13.93
2023-03-06T08:03:01.876Z,13.93
2023-03-06T08:05:30.179Z,13.97
2023-03-06T08:07:58.338Z,13.73
2023-03-06T08:10:26.629Z,14.10
2023-03-06T08:12:54.816Z,14.23
2023-03-06T08:15:24.534Z,14.07
2023-03-06T08:17:53.116Z,16.60
2023-03-06T08:20:21.586Z,14.37
2023-03-06T08:22:50.750Z,13.93
2023-03-06T08:25:19.379Z,15.87
2023-03-06T08:27:48.420Z,16.10
2023-03-06T08:30:17.314Z,15.10
2023-03-06T08:32:47.333Z,14.03
2023-03-06T08:35:16.784Z,14.93
2023-03-06T08:37:45.425Z,14.13
2023-03-06T08:40:14.752Z,16.93
2023-03-06T08:42:43.246Z,18.67
2023-03-06T08:45:12.697Z,16.30
2023-03-06T08:47:40.932Z,14.43
2023-03-06T08:50:12.824Z,14.50
2023-03-06T08:52:41.217Z,17.23
2023-03-06T08:55:10.688Z,15.23
2023-03-06T08:57:39.048Z,15.57
2023-03-06T09:00:09.202Z,15.17
2023-03-06T09:02:38.733Z,15.40
2023-03-06T09:05:07.551Z,15.30
2023-03-06T09:07:37.892Z,15.40
2023-03-06T09:10:06.560Z,15.40
2023-03-06T09:12:47.473Z,14.43
2023-03-06T09:15:18.571Z,17.67
2023-03-06T09:17:47.555Z,15.90
2023-03-06T09:20:16.117Z,15.53
2023-03-06T09:22:47.019Z,16.90
2023-03-06T09:25:20.453Z,15.47
2023-03-06T09:27:58.239Z,15.73
2023-03-06T09:30:30.228Z,16.23
2023-03-06T09:32:58.488Z,18.17
2023-03-06T09:35:26.854Z,18.03
2023-03-06T09:37:56.767Z,17.10
2023-03-06T09:40:48.604Z,16.17
2023-03-06T09:43:22.732Z,16.17
2023-03-06T09:45:50.891Z,17.53
2023-03-06T09:48:23.868Z,16.53
2023-03-06T09:50:58.221Z,16.07
2023-03-06T09:53:49.474Z,17.73
2023-03-06T09:56:23.462Z,17.70
2023-03-06T09:58:58.354Z,18.63
2023-03-06T10:01:30.524Z,19.23
2023-03-06T10:04:10.096Z,17.27
2023-03-06T10:06:49.251Z,16.10
2023-03-06T10:09:25.986Z,17.27
2023-03-06T10:11:57.141Z,18.63
2023-03-06T10:14:34.788Z,20.90
2023-03-06T10:17:03.236Z,17.07
2023-03-06T10:19:35.619Z,17.67
2023-03-06T10:22:08.863Z,16.73
2023-03-06T10:24:49.194Z,16.70
2023-03-06T10:27:31.822Z,17.60
2023-03-06T10:30:12.673Z,16.63
2023-03-06T10:32:49.585Z,16.80
2023-03-06T10:35:21.666Z,17.17
2023-03-06T10:37:50.278Z,19.00
2023-03-06T10:40:23.100Z,16.80
2023-03-06T10:42:58.737Z,16.57
2023-03-06T10:45:49.505Z,16.33
2023-03-06T10:48:22.001Z,17.23
2023-03-06T10:50:50.224Z,16.00
2023-03-06T10:53:26.013Z,15.17
2023-03-06T10:55:59.028Z,15.57
2023-03-06T10:58:29.287Z,15.20
2023-03-06T11:01:08.507Z,16.07
2023-03-06T11:03:37.822Z,14.57
2023-03-06T11:06:15.563Z,13.70
2023-03-06T11:08:45.866Z,14.10
2023-03-06T11:11:36.821Z,14.20
2023-03-06T11:14:16.216Z,13.87
2023-03-06T11:16:53.247Z,13.47
2023-03-06T11:19:24.822Z,13.80
2023-03-06T11:22:03.127Z,13.17
2023-03-06T11:24:38.648Z,12.70
2023-03-06T11:27:22.367Z,11.80
2023-03-06T11:29:53.394Z,12.27
2023-03-06T11:32:24.269Z,12.03
2023-03-06T11:34:56.475Z,11.40
2023-03-06T11:37:34.615Z,11.33
2023-03-06T11:40:09.026Z,11.93
2023-03-06T11:42:43.857Z,9.90
2023-03-06T11:45:26.373Z,10.87
2023-03-06T11:48:02.847Z,10.77
2023-03-06T11:50:36.407Z,10.60
2023-03-06T11:53:06.995Z,10.73
2023-03-06T11:55:46.571Z,11.20
2023-03-06T11:58:53.050Z,11.40
2023-03-06T12:01:28.696Z,10.97
2023-03-06T12:04:23.054Z,10.87
2023-03-06T12:07:02.306Z,11.53
2023-03-06T12:09:46.076Z,11.90
2023-03-06T12:12:35.877Z,12.27
2023-03-06T12:15:28.406Z,11.63
2023-03-06T12:18:12.919Z,10.83
2023-03-06T12:20:54.984Z,12.60
2023-03-06T12:23:40.272Z,12.17
2023-03-06T12:26:25.471Z,12.07
2023-03-06T12:29:11.109Z,10.63
2023-03-06T12:32:08.650Z,9.63
2023-03-06T12:34:58.166Z,10.57
2023-03-06T12:37:35.941Z,10.10
2023-03-06T12:40:57.846Z,10.73
2023-03-06T12:43:49.004Z,10.20
2023-03-06T12:46:18.906Z,10.40
2023-03-06T12:48:56.254Z,10.20
2023-03-06T12:51:24.519Z,9.33
2023-03-06T12:53:53.432Z,10.47
2023-03-06T12:56:22.425Z,10.23
2023-03-06T12:58:52.686Z,9.63
2023-03-06T13:02:00.191Z,10.57
2023-03-06T13:04:53.354Z,10.93
2023-03-06T13:07:38.013Z,11.33
2023-03-06T13:10:15.414Z,11.30
2023-03-06T13:12:54.541Z,10.43
2023-03-06T13:15:38.053Z,11.03
2023-03-06T13:18:57.864Z,10.60
2023-03-06T13:21:49.123Z,12.70
2023-03-06T13:24:21.313Z,12.37
2023-03-06T13:26:58.294Z,10.27
2023-03-06T13:30:02.752Z,9.60
2023-03-06T13:32:33.222Z,11.00
2023-03-06T13:35:02.115Z,10.43
2023-03-06T13:37:52.532Z,10.37
2023-03-06T13:40:32.079Z,9.13
2023-03-06T13:43:23.804Z,9.83
2023-03-06T13:45:52.240Z,10.70
2023-03-06T13:48:47.683Z,9.37
2023-03-06T13:51:24.461Z,9.67
2023-03-06T13:54:25.538Z,9.83
2023-03-06T13:57:08.462Z,10.13
2023-03-06T14:00:25.287Z,9.73
2023-03-06T14:03:26.476Z,9.40
2023-03-06T14:05:54.944Z,9.10
2023-03-06T14:08:25.860Z,10.10
2023-03-06T14:11:05.150Z,10.10
2023-03-06T14:13:46.902Z,9.77
2023-03-06T14:16:22.081Z,8.97
2023-03-06T14:18:52.674Z,10.00
2023-03-06T14:21:31.071Z,8.03
2023-03-06T14:24:00.973Z,9.80
2023-03-06T14:26:34.292Z,8.80
2023-03-06T14:29:05.148Z,9.43
2023-03-06T14:31:37.610Z,9.60
2023-03-06T14:34:08.344Z,8.83
2023-03-06T14:36:44.190Z,8.40
2023-03-06T14:39:16.381Z,7.90
2023-03-06T14:41:45.022Z,8.10
2023-03-06T14:44:21.618Z,8.70
2023-03-06T14:46:52.129Z,8.03
2023-03-06T14:49:21.930Z,8.27
2023-03-06T14:51:52.533Z,8.37
2023-03-06T14:54:25.086Z,9.17
2023-03-06T14:56:56.776Z,8.60
2023-03-06T14:59:29.765Z,8.23
2023-03-06T15:02:02.392Z,8.50
2023-03-06T15:04:36.850Z,8.07
2023-03-06T15:07:09.273Z,7.37
2023-03-06T15:09:39.248Z,8.10
2023-03-06T15:12:30.206Z,7.90
2023-03-06T15:15:03.697Z,8.00
2023-03-06T15:17:33.876Z,7.53
2023-03-06T15:20:03.043Z,9.00
2023-03-06T15:22:37.524Z,7.20
2023-03-06T15:25:21.344Z,7.50
2023-03-06T15:27:51.373Z,7.63
2023-03-06T15:30:27.710Z,7.93
2023-03-06T15:33:11.207Z,7.73
2023-03-06T15:35:39.894Z,8.10
2023-03-06T15:38:25.838Z,7.47
2023-03-06T15:40:58.931Z,7.47
2023-03-06T15:43:28.342Z,7.30
2023-03-06T15:46:01.246Z,7.63
2023-03-06T15:48:29.852Z,7.33
2023-03-06T15:50:58.193Z,8.70
2023-03-06T15:53:26.650Z,7.53
2023-03-06T15:55:54.940Z,8.73
2023-03-06T15:58:26.926Z,7.73
2023-03-06T16:00:55.374Z,7.33
2023-03-06T16:03:25.049Z,8.53
2023-03-06T16:05:53.510Z,9.33
2023-03-06T16:08:21.908Z,8.00
2023-03-06T16:10:51.448Z,7.80
2023-03-06T16:13:26.351Z,8.10
2023-03-06T16:15:57.617Z,8.27
2023-03-06T16:18:27.512Z,8.07
2023-03-06T16:20:55.927Z,8.53
2023-03-06T16:23:24.315Z,8.33
2023-03-06T16:25:53.224Z,7.60
2023-03-06T16:28:21.679Z,8.17
2023-03-06T16:30:49.843Z,8.80
2023-03-06T16:33:18.156Z,7.93
2023-03-06T16:35:50.051Z,8.50
2023-03-06T16:38:18.195Z,8.83
2023-03-06T16:40:46.516Z,9.03
2023-03-06T16:43:16.318Z,9.50
2023-03-06T16:45:45.008Z,9.70
2023-03-06T16:48:18.690Z,9.37
2023-03-06T16:50:49.497Z,8.87
2023-03-06T16:53:18.405Z,9.00
2023-03-06T16:55:48.415Z,8.37
2023-03-06T16:58:16.995Z,9.90
2023-03-06T17:00:45.413Z,8.47
2023-03-06T17:03:13.758Z,8.17
2023-03-06T17:05:44.033Z,9.40
2023-03-06T17:08:13.912Z,8.30
2023-03-06T17:10:43.144Z,7.70
2023-03-06T17:13:12.610Z,8.80
2023-03-06T17:15:41.173Z,10.00
2023-03-06T17:18:09.583Z,13.67
2023-03-06T17:20:37.953Z,17.17
2023-03-06T17:23:06.193Z,11.93
2023-03-06T17:25:38.755Z,10.13
2023-03-06T17:28:07.309Z,18.43
2023-03-06T17:30:35.778Z,9.60
2023-03-06T17:33:04.308Z,10.53
2023-03-06T17:35:32.998Z,11.17
2023-03-06T17:38:01.077Z,8.80
2023-03-06T17:40:29.221Z,9.47
2023-03-06T17:42:58.871Z,10.43
2023-03-06T17:45:29.245Z,10.47
2023-03-06T17:47:59.555Z,10.47
2023-03-06T17:50:28.152Z,10.00
2023-03-06T17:52:56.271Z,9.90
2023-03-06T17:55:24.629Z,10.07
2023-03-06T17:57:53.210Z,12.13
2023-03-06T18:00:24.832Z,11.23
2023-03-06T18:02:53.517Z,12.17
2023-03-06T18:05:22.068Z,11.07
2023-03-06T18:07:50.642Z,13.77
2023-03-06T18:10:19.096Z,13.17
2023-03-06T18:12:48.512Z,11.67
2023-03-06T18:15:16.690Z,11.43
2023-03-06T18:17:48.400Z,11.50
2023-03-06T18:20:17.339Z,12.23
2023-03-06T18:22:45.584Z,12.23
2023-03-06T18:25:13.979Z,18.37
2023-03-06T18:27:42.136Z,26.60
2023-03-06T18:30:11.583Z,17.37
2023-03-06T18:32:41.047Z,12.53
2023-03-06T18:35:11.627Z,15.03
2023-03-06T18:37:40.161Z,17.20
2023-03-06T18:40:09.821Z,12.37
2023-03-06T18:42:38.249Z,15.10
2023-03-06T18:45:09.993Z,13.50
2023-03-06T18:47:42.315Z,11.73
2023-03-06T18:50:17.595Z,20.60
2023-03-06T18:52:46.319Z,26.80
2023-03-06T18:55:14.472Z,16.00
2023-03-06T18:57:42.781Z,14.60
2023-03-06T19:00:12.529Z,15.17
2023-03-06T19:02:41.324Z,13.27
2023-03-06T19:05:11.520Z,12.60
2023-03-06T19:07:40.857Z,11.53
2023-03-06T19:10:11.971Z,11.73
2023-03-06T19:12:40.040Z,11.50
2023-03-06T19:15:09.742Z,12.73
2023-03-06T19:17:37.927Z,12.07
2023-03-06T19:20:07.303Z,11.87
2023-03-06T19:22:37.656Z,11.60
2023-03-06T19:25:07.206Z,12.77
2023-03-06T19:27:38.009Z,13.27
2023-03-06T19:30:07.376Z,13.77
2023-03-06T19:32:35.756Z,14.17
2023-03-06T19:35:05.694Z,14.30
2023-03-06T19:37:34.677Z,13.07
2023-03-06T19:40:04.708Z,13.43
2023-03-06T19:42:33.419Z,14.20
2023-03-06T19:45:01.848Z,14.80
2023-03-06T19:47:30.398Z,14.07
2023-03-06T19:49:58.902Z,14.83
2023-03-06T19:52:27.898Z,13.83
2023-03-06T19:54:56.460Z,12.90
2023-03-06T19:57:29.701Z,12.70
2023-03-06T19:59:58.777Z,13.23
2023-03-06T20:02:27.699Z,12.87
2023-03-06T20:04:56.483Z,12.87
2023-03-06T20:07:24.856Z,13.90
2023-03-06T20:09:54.456Z,12.57
2023-03-06T20:12:22.696Z,12.63
2023-03-06T20:14:53.670Z,13.43
2023-03-06T20:17:21.976Z,12.27
2023-03-06T20:19:51.840Z,12.87
2023-03-06T20:22:23.583Z,11.50
2023-03-06T20:24:52.076Z,12.07
2023-03-06T20:27:21.136Z,13.23
2023-03-06T20:29:49.387Z,12.67
2023-03-06T20:32:19.046Z,12.57
2023-03-06T20:34:47.300Z,13.73
2023-03-06T20:37:16.244Z,12.63
2023-03-06T20:39:44.506Z,13.63
2023-03-06T20:42:13.484Z,14.00
2023-03-06T20:44:41.669Z,12.47
2023-03-06T20:47:10.455Z,13.83
2023-03-06T20:49:40.267Z,14.00
2023-03-06T20:52:08.907Z,14.67
2023-03-06T20:54:37.547Z,14.27
2023-03-06T20:57:06.096Z,13.67
2023-03-06T20:59:34.698Z,15.33
2023-03-06T21:02:03.921Z,12.93
2023-03-06T21:04:32.092Z,13.10
2023-03-06T21:07:02.123Z,13.27
2023-03-06T21:09:30.349Z,13.57
2023-03-06T21:11:58.834Z,12.33
2023-03-06T21:14:27.294Z,14.47
2023-03-06T21:16:57.242Z,11.90
2023-03-06T21:19:26.472Z,12.27
2023-03-06T21:21:54.865Z,11.30
2023-03-06T21:24:24.895Z,13.17
2023-03-06T21:26:53.532Z,11.10
2023-03-06T21:29:21.817Z,11.97
2023-03-06T21:31:49.956Z,11.57
2023-03-06T21:34:19.587Z,12.60
2023-03-06T21:36:48.062Z,12.90
2023-03-06T21:39:16.458Z,12.87
2023-03-06T21:41:46.305Z,12.47
2023-03-06T21:44:14.648Z,12.30
2023-03-06T21:46:45.095Z,11.47
2023-03-06T21:49:13.838Z,12.50
2023-03-06T21:51:43.162Z,11.77
2023-03-06T21:54:13.275Z,11.27
2023-03-06T21:56:41.394Z,11.87
2023-03-06T21:59:10.991Z,11.87
2023-03-06T22:01:39.069Z,13.10
2023-03-06T22:04:07.547Z,11.43
2023-03-06T22:06:36.396Z,12.27
2023-03-06T22:09:04.945Z,11.53
2023-03-06T22:11:37.029Z,10.90
2023-03-06T22:14:07.292Z,11.10
2023-03-06T22:16:37.841Z,12.77
2023-03-06T22:19:06.252Z,11.33
2023-03-06T22:21:34.746Z,11.47
2023-03-06T22:24:03.416Z,11.40
2023-03-06T22:26:32.107Z,11.83
2023-03-06T22:29:00.192Z,11.53
2023-03-06T22:31:29.967Z,12.63
2023-03-06T22:34:02.463Z,10.97
2023-03-06T22:36:32.062Z,11.37
2023-03-06T22:39:03.320Z,11.70
2023-03-06T22:41:31.958Z,11.13
2023-03-06T22:44:02.044Z,11.70
2023-03-06T22:46:30.663Z,10.37
2023-03-06T22:49:04.381Z,11.10
2023-03-06T22:51:33.496Z,11.00
2023-03-06T22:54:01.984Z,11.87
2023-03-06T22:56:30.390Z,11.10
2023-03-06T22:58:59.241Z,11.07
2023-03-06T23:01:30.261Z,11.80
2023-03-06T23:04:01.757Z,10.73
2023-03-06T23:06:34.398Z,12.40
2023-03-06T23:09:06.219Z,11.40
2023-03-06T23:11:35.048Z,11.90
2023-03-06T23:14:05.619Z,12.80
2023-03-06T23:16:34.415Z,11.43
2023-03-06T23:19:04.609Z,11.03
2023-03-06T23:21:34.333Z,11.07
2023-03-06T23:24:03.454Z,11.50
2023-03-06T23:26:34.261Z,10.57
2023-03-06T23:29:02.791Z,11.60
2023-03-06T23:31:32.386Z,10.50
2023-03-06T23:34:02.995Z,10.40
2023-03-06T23:36:32.965Z,10.90
2023-03-06T23:39:02.457Z,12.00
2023-03-06T23:41:30.673Z,11.63
2023-03-06T23:44:00.205Z,11.87
2023-03-06T23:46:28.763Z,11.77
2023-03-06T23:48:57.240Z,12.40
2023-03-06T23:51:25.603Z,11.90
2023-03-06T23:54:01.349Z,12.40
2023-03-06T23:56:30.870Z,13.13
2023-03-06T23:58:59.297Z,12.63
